createdAt,value
2019-02-05T00:00:59.665Z,30.60
2019-02-05T00:06:03.556Z,30.60
2019-02-05T00:11:07.369Z,30.60
2019-02-05T00:16:11.093Z,30.60
2019-02-05T00:21:15.217Z,30.60
2019-02-05T00:26:19.243Z,30.60
2019-02-05T00:31:22.932Z,30.60
2019-02-05T00:36:27.237Z,30.60
2019-02-05T00:41:31.157Z,30.60
2019-02-05T00:46:34.873Z,30.60
2019-02-05T00:51:38.568Z,30.50
2019-02-05T00:56:42.228Z,30.50
2019-02-05T01:01:46.224Z,30.50
2019-02-05T01:06:49.898Z,30.50
2019-02-05T01:11:53.623Z,30.50
2019-02-05T01:16:57.249Z,30.50
2019-02-05T01:22:01.012Z,30.60
2019-02-05T01:27:05.076Z,30.50
2019-02-05T01:32:08.825Z,30.50
2019-02-05T01:37:12.989Z,30.50
2019-02-05T01:42:16.640Z,30.50
2019-02-05T01:47:20.285Z,30.40
2019-02-05T01:52:23.948Z,30.40
2019-02-05T01:57:27.638Z,30.50
2019-02-05T02:02:32.032Z,30.40
2019-02-05T02:07:35.755Z,30.40
2019-02-05T02:12:39.504Z,30.40
2019-02-05T02:17:43.118Z,30.30
2019-02-05T02:22:46.850Z,30.40
2019-02-05T02:27:51.229Z,30.30
2019-02-05T02:32:55.140Z,30.30
2019-02-05T02:37:58.877Z,30.30
2019-02-05T02:43:02.591Z,30.40
2019-02-05T02:48:06.313Z,30.30
2019-02-05T02:53:10.056Z,30.30
2019-02-05T02:58:13.790Z,30.30
2019-02-05T03:03:17.490Z,30.30
2019-02-05T03:08:21.245Z,30.30
2019-02-05T03:13:24.984Z,30.20
2019-02-05T03:18:29.011Z,30.20
2019-02-05T03:23:32.849Z,30.20
2019-02-05T03:28:36.572Z,30.20
2019-02-05T03:33:40.600Z,30.30
2019-02-05T03:38:44.308Z,30.20
2019-02-05T03:43:48.078Z,30.20
2019-02-05T03:48:51.789Z,30.20
2019-02-05T03:54:18.008Z,30.20
2019-02-05T03:59:57.262Z,30.20
2019-02-05T04:05:34.640Z,30.20
2019-02-05T04:11:03.316Z,30.10
2019-02-05T04:16:51.708Z,30.20
2019-02-05T04:22:09.382Z,30.10
2019-02-05T04:27:47.288Z,30.10
2019-02-05T04:32:58.919Z,30.10
2019-02-05T04:38:46.922Z,30.20
2019-02-05T04:44:20.393Z,30.10
2019-02-05T04:49:56.439Z,30.10
2019-02-05T04:55:27.070Z,30.10
2019-02-05T05:00:54.250Z,30.10
2019-02-05T05:06:21.436Z,30.10
2019-02-05T05:11:25.096Z,30.10
2019-02-05T05:16:29.164Z,30.10
2019-02-05T05:21:33.362Z,30.10
2019-02-05T05:26:37.086Z,30.10
2019-02-05T05:31:40.961Z,30.10
2019-02-05T05:36:50.180Z,30.10
2019-02-05T05:41:54.042Z,30.10
2019-02-05T05:46:57.931Z,30.10
2019-02-05T05:52:01.578Z,30.10
2019-02-05T05:57:05.360Z,30.10
2019-02-05T06:02:09.126Z,30.10
2019-02-05T06:07:12.960Z,30.10
2019-02-05T06:12:16.801Z,30.00
2019-02-05T06:17:20.937Z,30.00
2019-02-05T06:22:24.672Z,30.00
2019-02-05T06:27:28.413Z,30.00
2019-02-05T06:32:32.191Z,30.00
2019-02-05T06:37:36.267Z,29.90
2019-02-05T06:42:40.036Z,29.90
2019-02-05T06:47:44.083Z,29.90
2019-02-05T06:52:47.877Z,29.90
2019-02-05T06:57:51.611Z,29.90
2019-02-05T07:02:56.622Z,29.80
2019-02-05T07:08:00.411Z,29.80
2019-02-05T07:13:04.557Z,29.90
2019-02-05T07:18:08.852Z,29.80
2019-02-05T07:23:13.887Z,29.80
2019-02-05T07:28:17.889Z,29.80
2019-02-05T07:33:21.961Z,29.80
2019-02-05T07:38:28.000Z,29.80
2019-02-05T07:43:32.024Z,29.80
2019-02-05T07:48:36.215Z,29.80
2019-02-05T07:53:40.164Z,29.80
2019-02-05T07:58:43.996Z,29.90
2019-02-05T08:03:48.199Z,29.90
2019-02-05T08:08:51.966Z,30.00
2019-02-05T08:13:55.725Z,30.00
2019-02-05T08:18:59.457Z,30.00
2019-02-05T08:24:03.381Z,30.00
2019-02-05T08:29:08.023Z,30.00
2019-02-05T08:34:11.833Z,30.00
2019-02-05T08:39:17.899Z,30.00
2019-02-05T08:44:21.395Z,30.00
2019-02-05T08:49:28.629Z,30.00
2019-02-05T08:54:33.167Z,30.00
2019-02-05T08:59:38.064Z,30.00
2019-02-05T09:04:41.869Z,30.00
2019-02-05T09:09:45.789Z,30.00
2019-02-05T09:14:49.780Z,30.00
2019-02-05T09:19:53.585Z,30.00
2019-02-05T09:24:57.391Z,30.00
2019-02-05T09:30:01.250Z,30.00
2019-02-05T09:35:05.992Z,30.10
2019-02-05T09:40:13.417Z,30.00
2019-02-05T09:45:17.592Z,30.00
2019-02-05T09:50:21.561Z,30.00
2019-02-05T09:55:25.312Z,30.00
2019-02-05T10:00:31.822Z,30.00
2019-02-05T10:05:35.879Z,30.00
2019-02-05T10:10:39.969Z,30.00
2019-02-05T10:15:43.676Z,30.00
2019-02-05T10:20:47.458Z,30.00
2019-02-05T10:25:51.290Z,30.00
2019-02-05T10:30:55.058Z,30.00
2019-02-05T10:36:01.262Z,30.00
2019-02-05T10:41:04.664Z,30.00
2019-02-05T10:46:08.897Z,30.00
2019-02-05T10:51:12.690Z,30.00
2019-02-05T10:56:16.452Z,30.00
2019-02-05T11:01:20.300Z,30.00
2019-02-05T11:06:24.103Z,30.00
2019-02-05T11:11:28.264Z,29.90
2019-02-05T11:16:32.336Z,30.00
2019-02-05T11:21:36.442Z,29.90
2019-02-05T11:26:42.252Z,29.90
2019-02-05T11:31:50.476Z,29.90
2019-02-05T11:36:57.156Z,29.80
2019-02-05T11:42:08.605Z,29.90
2019-02-05T11:47:12.424Z,29.80
2019-02-05T11:52:16.171Z,29.80
2019-02-05T11:57:19.943Z,29.80
2019-02-05T12:02:24.154Z,29.80
2019-02-05T12:07:27.919Z,29.80
2019-02-05T12:12:31.756Z,29.80
2019-02-05T12:17:35.520Z,29.80
2019-02-05T12:22:39.378Z,29.80
2019-02-05T12:27:43.154Z,29.80
2019-02-05T12:32:47.005Z,29.90
2019-02-05T12:37:50.909Z,29.80
2019-02-05T12:42:55.010Z,29.80
2019-02-05T12:47:58.823Z,29.80
2019-02-05T12:53:02.732Z,29.80
2019-02-05T12:58:06.631Z,29.80
2019-02-05T13:03:11.191Z,30.30
2019-02-05T13:08:14.956Z,29.80
2019-02-05T13:13:21.566Z,29.90
2019-02-05T13:18:25.273Z,29.80
2019-02-05T13:23:29.132Z,29.90
2019-02-05T13:28:33.791Z,29.90
2019-02-05T13:33:37.593Z,29.90
2019-02-05T13:38:41.514Z,29.90
2019-02-05T13:43:47.761Z,29.90
2019-02-05T13:48:51.535Z,29.90
2019-02-05T13:53:55.309Z,29.90
2019-02-05T13:58:59.077Z,29.90
2019-02-05T14:04:02.994Z,29.90
2019-02-05T14:09:11.083Z,29.90
2019-02-05T14:14:14.861Z,30.00
2019-02-05T14:19:18.699Z,29.90
2019-02-05T14:24:22.492Z,30.00
2019-02-05T14:29:26.847Z,30.00
2019-02-05T14:34:31.084Z,29.90
2019-02-05T14:39:34.983Z,29.90
2019-02-05T14:44:38.780Z,29.90
2019-02-05T14:49:42.608Z,30.00
2019-02-05T14:54:46.547Z,30.00
2019-02-05T14:59:50.551Z,30.00
2019-02-05T15:04:54.663Z,30.00
2019-02-05T15:09:58.772Z,30.00
2019-02-05T15:15:03.353Z,30.00
2019-02-05T15:20:13.403Z,30.00
2019-02-05T15:25:17.145Z,30.00
2019-02-05T15:30:23.877Z,30.00
2019-02-05T15:35:28.050Z,30.00
2019-02-05T15:40:31.938Z,30.00
2019-02-05T15:45:35.861Z,30.00
2019-02-05T15:50:39.638Z,30.10
2019-02-05T15:55:43.529Z,30.10
2019-02-05T16:00:48.926Z,30.10
2019-02-05T16:06:00.275Z,30.10
2019-02-05T16:11:10.636Z,30.10
2019-02-05T16:16:17.974Z,30.10
2019-02-05T16:21:41.142Z,30.10
2019-02-05T16:26:47.709Z,30.10
2019-02-05T16:31:51.835Z,30.20
2019-02-05T16:36:57.291Z,30.20
2019-02-05T16:42:01.460Z,30.20
2019-02-05T16:47:05.289Z,30.20
2019-02-05T16:52:09.053Z,30.20
2019-02-05T16:57:12.897Z,30.20
2019-02-05T17:02:16.683Z,30.20
2019-02-05T17:07:20.845Z,30.30
2019-02-05T17:12:24.988Z,30.20
2019-02-05T17:17:40.791Z,30.20
2019-02-05T17:22:44.587Z,30.20
2019-02-05T17:27:48.759Z,30.20
2019-02-05T17:32:52.562Z,30.20
2019-02-05T17:37:56.441Z,30.30
2019-02-05T17:43:00.212Z,30.30
2019-02-05T17:48:06.922Z,30.30
2019-02-05T17:53:10.759Z,30.90
2019-02-05T17:58:14.501Z,30.40
2019-02-05T18:03:19.735Z,30.30
2019-02-05T18:08:23.556Z,30.30
2019-02-05T18:13:27.484Z,30.30
2019-02-05T18:18:31.882Z,30.40
2019-02-05T18:23:35.590Z,30.50
2019-02-05T18:28:39.788Z,30.40
2019-02-05T18:33:43.571Z,30.40
2019-02-05T18:38:47.484Z,30.40
2019-02-05T18:43:51.929Z,30.40
2019-02-05T18:49:04.650Z,30.40
2019-02-05T18:54:01.274Z,30.40
2019-02-05T18:59:05.044Z,30.40
2019-02-05T19:04:08.958Z,30.50
2019-02-05T19:09:16.031Z,30.50
2019-02-05T19:14:23.059Z,30.60
2019-02-05T19:19:25.366Z,30.50
2019-02-05T19:24:37.645Z,30.60
2019-02-05T19:29:41.858Z,30.50
2019-02-05T19:34:45.782Z,30.60
2019-02-05T19:39:49.917Z,30.60
2019-02-05T19:45:15.517Z,30.60
2019-02-05T19:50:19.207Z,30.60
2019-02-05T19:55:23.019Z,30.60
2019-02-05T20:00:27.168Z,30.60
2019-02-05T20:05:31.077Z,30.50
2019-02-05T20:10:34.980Z,30.60
2019-02-05T20:15:42.971Z,30.60
2019-02-05T20:20:47.274Z,30.50
2019-02-05T20:25:51.133Z,30.50
2019-02-05T20:30:54.989Z,30.50
2019-02-05T20:35:58.729Z,30.60
2019-02-05T20:41:02.633Z,30.60
2019-02-05T20:46:06.530Z,30.60
2019-02-05T20:51:10.795Z,30.60
2019-02-05T20:56:14.757Z,30.60
2019-02-05T21:01:19.209Z,30.60
2019-02-05T21:06:23.048Z,30.60
2019-02-05T21:11:27.056Z,31.10
2019-02-05T21:16:30.989Z,30.60
2019-02-05T21:21:34.821Z,30.60
2019-02-05T21:26:38.841Z,30.60
2019-02-05T21:31:44.400Z,30.60
2019-02-05T21:37:07.513Z,30.60
2019-02-05T21:42:11.314Z,30.60
2019-02-05T21:47:15.382Z,30.60
2019-02-05T21:52:19.395Z,30.70
2019-02-05T21:57:24.844Z,30.50
2019-02-05T22:02:29.085Z,30.60
2019-02-05T22:07:33.080Z,30.60
2019-02-05T22:12:36.837Z,31.20
2019-02-05T22:17:40.662Z,30.60
2019-02-05T22:22:44.483Z,31.30
2019-02-05T22:27:54.303Z,30.80
2019-02-05T22:32:58.141Z,30.80
2019-02-05T22:38:02.248Z,30.80
2019-02-05T22:43:06.242Z,30.90
2019-02-05T22:48:10.162Z,30.90
2019-02-05T22:53:14.834Z,31.00
2019-02-05T22:58:18.568Z,31.00
2019-02-05T23:03:33.970Z,31.00
2019-02-05T23:08:38.321Z,31.10
2019-02-05T23:13:42.120Z,31.10
2019-02-05T23:18:46.654Z,31.20
2019-02-05T23:23:50.603Z,31.10
2019-02-05T23:28:57.023Z,31.20
2019-02-05T23:34:01.603Z,31.30
2019-02-05T23:39:05.913Z,31.30
2019-02-05T23:44:09.680Z,31.40
2019-02-05T23:49:13.954Z,31.50
2019-02-05T23:54:17.740Z,31.50
2019-02-05T23:59:21.556Z,31.60
